Station: Hervey Bay  

  Atmospheric Gas Attenuation - ITU Rec 676-11   ----------------- dB/100km -----------------
Date Time Temp RH % AH g/m3 Dew Point Wind Direction Speed kph Gust kph Barometer mB Rainfall Since 9am 24GHz 47GHz 76GHz 122GHz 134GHz 241GHz
08/05 12:30 21.1 49 9.03 10 17 30 1018.4 0 20.1 24.7 38.1 100.0 95.3 328.4
08/05 12:20 20.6 48 8.59 9.2 19 24 1018.5 0 19.2 24.2 36.7 96.3 90.5 311.7
08/05 12:10 20.6 48 8.59 9.2 17 24 1018.6 0 19.2 24.2 36.7 96.3 90.5 311.7
08/05 12:00 20.3 48 8.44 8.9 20 30 1018.8 0 18.9 24.0 36.3 95.2 89.1 306.6
08/05 11:50 20.3 49 8.62 9.2 19 24 1019.2 0 19.3 24.3 37.0 97.0 91.3 314.3
08/05 11:40 20.4 49 8.67 9.3 15 20 1019.1 0 19.4 24.4 37.2 97.4 91.8 316.0
08/05 11:30 19.8 48 8.2 8.5 20 30 1019.3 0 18.5 23.8 35.7 93.5 86.8 298.4
08/05 11:20 20 47 8.12 8.4 19 26 1019.3 0 18.3 23.7 35.3 92.5 85.6 294.3
08/05 11:10 20 48 8.29 8.7 17 22 1019.5 0 18.6 23.9 36.0 94.2 87.6 301.5
08/05 11:00 19.4 46 7.67 7.5 17 30 1019.7 0 17.4 23.2 34.0 88.9 80.9 277.7
08/05 10:50 19.2 48 7.91 7.9 17 24 1019.9 0 17.9 23.6 34.9 91.4 84.0 288.5
08/05 10:40 18.9 46 7.45 7 20 24 1020.1 0 16.9 23.0 33.4 87.3 78.8 270.3
08/05 10:30 19.3 47 7.8 7.7 11 15 1020.3 0 17.6 23.4 34.5 90.3 82.6 283.6
08/05 10:20 18.6 45 7.16 6.4 20 24 1020.3 0 16.3 22.7 32.5 84.9 75.7 259.3
08/05 10:10 18.4 45 7.08 6.3 19 24 1020.3 0 16.2 22.6 32.3 84.3 74.9 256.6
08/05 10:00 18 43 6.6 5.2 20 30 1020.4 0 15.2 22.0 30.7 80.2 69.6 238.1
08/05 09:50 17.7 43 6.49 5 22 24 1020.3 0 14.9 21.9 30.5 79.4 68.6 234.5
08/05 09:40 17.6 44 6.6 5.2 17 20 1020.2 0 15.2 22.1 30.9 80.6 70.0 239.3
08/05 09:30 17.3 43 6.33 4.6 19 30 1020.2 0 14.6 21.8 30.0 78.3 67.1 229.1
08/05 09:20 17.2 44 6.44 4.9 17 19 1020.4 0 14.9 22.0 30.5 79.5 68.5 233.9
08/05 09:10 16.3 44 6.1 4 17 20 1020.4 0 14.2 21.7 29.6 77.1 65.2 222.5
08/05 09:00 16.2 46 6.34 4.6 17 24 1020.5 0 14.7 22.1 30.5 79.5 68.2 232.7
08/05 08:50 15.6 43 5.72 3.1 19 24 1020.4 0 13.4 21.3 28.5 74.2 61.4 208.8
08/05 08:40 15.5 46 6.08 3.9 15 17 1020.3 0 14.2 21.8 29.8 77.7 65.7 223.8
08/05 08:30 15 47 6.03 3.8 17 26 1020.4 0 14.1 21.9 29.8 77.7 65.5 223.2
08/05 08:20 14.7 48 6.04 3.8 19 24 1020.3 0 14.1 22.0 30.0 78.1 65.8 224.4
08/05 08:10 14.4 48 5.93 3.5 15 20 1020.3 0 13.9 21.9 29.7 77.3 64.8 220.6
08/05 08:00 14.2 49 5.98 3.7 17 26 1020.3 0 14.0 22.0 29.9 78.0 65.5 223.3
08/05 07:50 14 54 6.51 4.9 13 17 1020.1 0 15.1 22.8 31.9 83.3 72.1 246.3
08/05 07:40 13.7 54 6.39 4.6 19 24 1020.1 0 14.9 22.7 31.6 82.5 70.9 242.0
08/05 07:30 13.6 57 6.71 5.3 11 17 1020.3 0 15.6 23.2 32.8 85.8 74.9 256.2
08/05 07:20 13.3 57 6.59 5 11 15 1019.9 0 15.3 23.1 32.5 84.8 73.7 251.9
08/05 07:10 13.2 58 6.66 5.1 9 11 1019.9 0 15.5 23.3 32.8 85.7 74.7 255.2
08/05 07:00 12.9 59 6.65 5.1 13 19 1019.4 0 15.5 23.3 32.9 85.8 74.8 255.6
08/05 06:50 12.6 59 6.53 4.8 13 17 1019.3 0 15.2 23.2 32.5 84.9 73.6 251.3
08/05 06:40 12.3 61 6.62 5 9 11 1019.2 0 15.4 23.4 33.0 86.2 75.0 256.2
08/05 06:30 12.2 60 6.48 4.7 11 19 1019.1 0 15.1 23.2 32.5 84.8 73.3 250.3
08/05 06:20 12.5 59 6.49 4.7 13 17 1019 0 15.1 23.1 32.4 84.6 73.2 249.8
08/05 06:10 12.6 57 6.31 4.3 11 13 1018.8 0 14.8 22.8 31.7 82.7 70.8 241.6
08/05 06:00 13 58 6.58 4.9 13 19 1018.8 0 15.3 23.1 32.5 85.0 73.8 252.1
08/05 05:50 13.1 59 6.73 5.3 13 15 1018.8 0 15.6 23.3 33.1 86.4 75.6 258.4
08/05 05:40 13.3 59 6.82 5.5 11 13 1018.5 0 15.8 23.4 33.3 87.0 76.5 261.6
08/05 05:30 13.6 59 6.94 5.7 13 22 1018.6 0 16.1 23.5 33.6 87.9 77.7 265.9
08/05 05:20 13.8 59 7.03 5.9 11 13 1018.4 0 16.2 23.6 33.9 88.6 78.6 269.1
08/05 05:10 14 59 7.12 6.1 15 17 1018.2 0 16.4 23.7 34.1 89.3 79.5 272.3
08/05 05:00 13.7 64 7.58 7 13 24 1018.3 0 17.4 24.5 36.0 94.3 85.7 293.8
08/05 04:50 13.6 68 8 7.8 11 13 1018.4 0 18.3 25.2 37.7 98.9 91.2 313.2
08/05 04:40 13.9 67 8.03 7.9 7 11 1018.3 0 18.4 25.1 37.7 98.8 91.2 313.3
08/05 04:30 13.8 69 8.22 8.2 9 15 1017.8 0 18.8 25.5 38.5 100.9 93.8 322.2
08/05 04:20 13.7 69 8.17 8.1 9 13 1017.7 0 18.7 25.4 38.3 100.5 93.2 320.3
08/05 04:10 13.7 71 8.41 8.5 9 11 1017.6 0 19.2 25.8 39.3 103.0 96.4 331.3
08/05 04:00 13.2 73 8.38 8.5 6 11 1017.7 0 19.1 25.9 39.4 103.3 96.6 332.1
08/05 03:50 13.5 72 8.42 8.6 0 0 1017.5 0 19.2 25.8 39.4 103.4 96.7 332.6
08/05 03:40 13.8 71 8.46 8.6 9 11 1017.4 0 19.3 25.8 39.4 103.4 96.9 333.2
08/05 03:30 13.7 71 8.41 8.5 7 13 1017.4 0 19.2 25.8 39.3 103.0 96.4 331.3
08/05 03:20 13.9 71 8.51 8.7 9 11 1017.2 0 19.4 25.9 39.6 103.8 97.4 335.0
08/05 03:10 13.9 72 8.63 8.9 7 11 1017.2 0 19.6 26.1 40.0 105.1 99.0 340.5
08/05 03:00 13.7 72 8.53 8.7 7 11 1017.4 0 19.4 26.0 39.8 104.3 97.9 336.8
08/05 02:50 14 72 8.68 9 7 9 1017.3 0 19.7 26.1 40.2 105.5 99.5 342.5
08/05 02:40 14.4 71 8.78 9.2 6 7 1017.3 0 19.9 26.2 40.4 106.0 100.3 345.3
08/05 02:30 14.6 68 8.51 8.8 7 9 1017.4 0 19.4 25.7 39.2 102.9 96.6 332.1
08/05 02:20 15.2 65 8.44 8.7 7 7 1017.3 0 19.2 25.4 38.7 101.3 94.9 326.4
08/05 02:10 15.4 64 8.41 8.6 7 9 1017.4 0 19.1 25.3 38.4 100.8 94.3 324.2
08/05 02:00 15.8 62 8.35 8.5 9 13 1017.3 0 19.0 25.1 38.0 99.7 93.0 319.9
08/05 01:50 16.1 60 8.22 8.3 9 11 1017.3 0 18.7 24.8 37.4 97.9 91.0 312.9
08/05 01:40 16.1 62 8.5 8.8 7 9 1017.3 0 19.3 25.2 38.5 100.8 94.6 325.4
08/05 01:30 16.5 61 8.57 9 11 19 1017.3 0 19.4 25.2 38.5 101.0 95.0 326.9
08/05 01:20 16.5 62 8.71 9.2 9 13 1017.3 0 19.7 25.4 39.1 102.5 96.8 333.1
08/05 01:10 16.7 62 8.81 9.4 9 11 1017.2 0 19.9 25.5 39.4 103.3 97.8 336.7
08/05 01:00 17.2 58 8.49 8.9 11 15 1017.3 0 19.2 24.9 37.9 99.3 93.1 320.5
08/05 00:50 17.3 59 8.69 9.2 11 15 1017.3 0 19.6 25.2 38.6 101.3 95.5 328.9
08/05 00:40 17.4 61 9.04 9.8 11 15 1017.3 0 20.3 25.7 39.9 104.8 99.9 344.1
08/05 00:30 17.3 64 9.43 10.4 9 15 1017.1 0 21.2 26.3 41.5 109.0 105.0 362.1
08/05 00:20 17.5 64 9.54 10.6 11 13 1017.2 0 21.4 26.5 41.8 109.8 106.2 366.2
08/05 00:10 17.5 65 9.69 10.9 9 9 1017.2 0 21.7 26.7 42.4 111.4 108.1 373.0
08/05 00:00 17.4 67 9.93 11.2 11 15 1017.2 0 22.2 27.1 43.4 114.1 111.4 384.6
07/05 23:50 17.5 67 9.99 11.3 11 11 1017.1 0 22.4 27.2 43.6 114.6 112.1 386.8
07/05 23:40 17.6 67 10.05 11.4 11 11 1017.1 0 22.5 27.3 43.8 115.1 112.7 389.1
07/05 23:30 17.6 69 10.35 11.9 11 13 1017.1 0 23.1 27.7 45.0 118.4 116.7 403.0
07/05 23:20 17.3 72 10.61 12.2 9 11 1017.1 0 23.7 28.3 46.3 121.7 120.7 416.8
07/05 23:10 17.6 70 10.5 12.1 9 11 1017.1 0 23.4 28.0 45.6 120.0 118.7 410.1
07/05 23:00 17.9 69 10.53 12.1 9 11 1017.1 0 23.5 27.9 45.6 119.9 118.7 409.9
07/05 22:50 18.1 69 10.66 12.3 7 9 1017 0 23.7 28.1 46.0 121.0 120.1 414.9
07/05 22:40 18.4 67 10.54 12.2 9 11 1017 0 23.5 27.8 45.3 119.2 118.0 407.7
07/05 22:30 18.4 68 10.69 12.4 11 13 1016.9 0 23.8 28.0 45.9 120.8 120.0 414.7
07/05 22:20 18.4 71 11.17 13 9 11 1016.9 0 24.8 28.8 47.9 126.1 126.5 437.3
07/05 22:10 18.2 73 11.35 13.3 11 13 1017 0 25.2 29.2 48.8 128.4 129.3 447.0
07/05 22:00 18.4 72 11.32 13.3 7 11 1017.1 0 25.1 29.1 48.5 127.7 128.5 444.5
07/05 21:50 18.6 72 11.46 13.5 9 11 1017.1 0 25.4 29.3 49.0 129.0 130.1 450.0
07/05 21:40 18.9 71 11.5 13.5 7 7 1017.1 0 25.5 29.2 49.0 128.9 130.2 450.2
07/05 21:30 19.2 71 11.71 13.8 11 13 1017 0 25.9 29.5 49.6 130.7 132.5 458.4
07/05 21:20 18.9 74 11.99 14.2 9 11 1017 0 26.5 30.1 51.0 134.4 136.9 473.7
07/05 21:10 19.1 74 12.13 14.4 9 9 1017.1 0 26.8 30.2 51.5 135.6 138.5 479.2
07/05 21:00 18.9 77 12.47 14.8 11 11 1017.1 0 27.6 30.9 53.1 139.8 143.6 497.1
07/05 20:50 19 78 12.71 15.1 9 9 1017 0 28.1 31.3 54.0 142.4 146.8 508.2
07/05 20:40 19.1 79 12.95 15.4 9 11 1017 0 28.6 31.6 55.0 145.0 150.0 519.4
07/05 20:30 18.9 83 13.45 16 11 13 1016.9 0 29.6 32.6 57.3 151.2 157.6 545.8
07/05 20:20 18.8 85 13.69 16.2 11 11 1016.8 0 30.2 33.0 58.5 154.2 161.2 558.7
07/05 20:10 19.2 85 14.01 16.6 7 9 1016.7 0 30.8 33.5 59.6 157.2 165.1 572.0
07/05 20:00 19.2 86 14.18 16.8 9 11 1016.7 0 31.2 33.8 60.3 159.2 167.6 580.7

Last Refresh: 08-May-2026 12:07:12

Bureau of Meteorology